sensor_id;sensor_type;location;lat;lon;timestamp;pressure;altitude;pressure_sealevel;temperature;humidity
31403;BME280;18039;52.188;21.024;2023-01-27T00:00:54;78152.09;;;-141.45;79.09
31403;BME280;18039;52.188;21.024;2023-01-27T00:03:24;78162.22;;;-141.45;78.72
31403;BME280;18039;52.188;21.024;2023-01-27T00:05:51;78160.19;;;-141.45;78.59
31403;BME280;18039;52.188;21.024;2023-01-27T00:08:18;78162.22;;;-141.45;78.69
31403;BME280;18039;52.188;21.024;2023-01-27T00:10:46;78158.16;;;-141.45;78.73
31403;BME280;18039;52.188;21.024;2023-01-27T00:13:33;78162.22;;;-141.45;78.81
31403;BME280;18039;52.188;21.024;2023-01-27T00:16:00;78170.34;;;-141.45;78.15
31403;BME280;18039;52.188;21.024;2023-01-27T00:18:27;78166.28;;;-141.45;78.39
31403;BME280;18039;52.188;21.024;2023-01-27T00:20:54;78170.34;;;-141.45;78.24
31403;BME280;18039;52.188;21.024;2023-01-27T00:23:40;78174.41;;;-141.45;78.66
31403;BME280;18039;52.188;21.024;2023-01-27T00:26:26;78170.34;;;-141.45;78.42
31403;BME280;18039;52.188;21.024;2023-01-27T00:28:52;78164.25;;;-141.45;78.31
31403;BME280;18039;52.188;21.024;2023-01-27T00:31:20;78174.41;;;-141.45;78.40
31403;BME280;18039;52.188;21.024;2023-01-27T00:34:05;78178.44;;;-141.45;78.47
31403;BME280;18039;52.188;21.024;2023-01-27T00:36:37;78178.44;;;-141.45;78.20
31403;BME280;18039;52.188;21.024;2023-01-27T00:39:09;78170.34;;;-141.45;78.22
31403;BME280;18039;52.188;21.024;2023-01-27T00:41:36;78172.38;;;-141.45;78.09
31403;BME280;18039;52.188;21.024;2023-01-27T00:44:04;78172.38;;;-141.45;77.98
31403;BME280;18039;52.188;21.024;2023-01-27T00:46:32;78174.41;;;-141.45;78.12
31403;BME280;18039;52.188;21.024;2023-01-27T00:49:00;78190.63;;;-141.45;77.87
31403;BME280;18039;52.188;21.024;2023-01-27T00:51:27;78208.88;;;-141.45;78.15
31403;BME280;18039;52.188;21.024;2023-01-27T00:53:54;78206.84;;;-141.45;78.37
31403;BME280;18039;52.188;21.024;2023-01-27T00:56:21;78214.97;;;-141.45;78.63
31403;BME280;18039;52.188;21.024;2023-01-27T00:58:48;78202.78;;;-141.45;78.92
31403;BME280;18039;52.188;21.024;2023-01-27T01:01:34;78198.72;;;-141.45;78.84
31403;BME280;18039;52.188;21.024;2023-01-27T01:04:01;78206.84;;;-141.45;79.62
31403;BME280;18039;52.188;21.024;2023-01-27T01:06:29;78206.84;;;-141.45;79.66
31403;BME280;18039;52.188;21.024;2023-01-27T01:08:57;78206.84;;;-141.45;79.40
31403;BME280;18039;52.188;21.024;2023-01-27T01:11:24;78206.84;;;-141.45;79.47
31403;BME280;18039;52.188;21.024;2023-01-27T01:13:51;78206.84;;;-141.45;79.68
31403;BME280;18039;52.188;21.024;2023-01-27T01:16:22;78219.00;;;-141.45;79.53
31403;BME280;18039;52.188;21.024;2023-01-27T01:18:50;78214.97;;;-141.45;79.73
31403;BME280;18039;52.188;21.024;2023-01-27T01:21:19;78206.84;;;-141.45;79.74
31403;BME280;18039;52.188;21.024;2023-01-27T01:23:46;78206.84;;;-141.45;80.15
31403;BME280;18039;52.188;21.024;2023-01-27T01:26:15;78214.97;;;-141.45;79.90
31403;BME280;18039;52.188;21.024;2023-01-27T01:28:44;78210.91;;;-141.45;79.62
31403;BME280;18039;52.188;21.024;2023-01-27T01:31:17;78210.91;;;-141.45;79.96
31403;BME280;18039;52.188;21.024;2023-01-27T01:33:45;78202.78;;;-141.45;79.80
31403;BME280;18039;52.188;21.024;2023-01-27T01:36:15;78198.72;;;-141.45;80.04
31403;BME280;18039;52.188;21.024;2023-01-27T01:38:43;78198.72;;;-141.45;79.83
31403;BME280;18039;52.188;21.024;2023-01-27T01:41:13;78206.84;;;-141.45;79.44
31403;BME280;18039;52.188;21.024;2023-01-27T01:43:41;78219.00;;;-141.45;80.03
31403;BME280;18039;52.188;21.024;2023-01-27T01:46:11;78210.91;;;-141.45;80.28
31403;BME280;18039;52.188;21.024;2023-01-27T01:51:11;78212.94;;;-141.45;80.48
31403;BME280;18039;52.188;21.024;2023-01-27T01:56:33;78221.03;;;-141.45;80.54
31403;BME280;18039;52.188;21.024;2023-01-27T01:59:09;78233.22;;;-141.45;81.00
31403;BME280;18039;52.188;21.024;2023-01-27T02:01:39;78229.16;;;-141.45;81.36
31403;BME280;18039;52.188;21.024;2023-01-27T02:04:14;78227.13;;;-141.45;81.17
31403;BME280;18039;52.188;21.024;2023-01-27T02:06:52;78227.13;;;-141.45;81.36
31403;BME280;18039;52.188;21.024;2023-01-27T02:09:39;78231.19;;;-141.45;81.34
31403;BME280;18039;52.188;21.024;2023-01-27T02:12:06;78227.13;;;-141.45;80.90
31403;BME280;18039;52.188;21.024;2023-01-27T02:14:36;78235.25;;;-141.45;81.04
31403;BME280;18039;52.188;21.024;2023-01-27T02:17:04;78231.19;;;-141.45;80.90
31403;BME280;18039;52.188;21.024;2023-01-27T02:22:04;78237.28;;;-141.45;81.07
31403;BME280;18039;52.188;21.024;2023-01-27T02:24:39;78231.19;;;-141.45;80.70
31403;BME280;18039;52.188;21.024;2023-01-27T02:27:10;78231.19;;;-141.45;80.99
31403;BME280;18039;52.188;21.024;2023-01-27T02:29:39;78227.13;;;-141.45;80.45
31403;BME280;18039;52.188;21.024;2023-01-27T02:32:07;78227.13;;;-141.45;80.47
31403;BME280;18039;52.188;21.024;2023-01-27T02:34:36;78223.06;;;-141.45;80.53
31403;BME280;18039;52.188;21.024;2023-01-27T02:37:06;78227.13;;;-141.45;79.90
31403;BME280;18039;52.188;21.024;2023-01-27T02:39:41;78223.06;;;-141.45;79.91
31403;BME280;18039;52.188;21.024;2023-01-27T02:42:11;78221.03;;;-141.45;79.18
31403;BME280;18039;52.188;21.024;2023-01-27T02:44:39;78219.00;;;-141.45;79.24
31403;BME280;18039;52.188;21.024;2023-01-27T02:47:07;78223.06;;;-141.45;79.38
31403;BME280;18039;52.188;21.024;2023-01-27T02:49:34;78227.13;;;-141.45;79.81
31403;BME280;18039;52.188;21.024;2023-01-27T02:52:02;78235.25;;;-141.45;79.76
31403;BME280;18039;52.188;21.024;2023-01-27T02:54:29;78223.06;;;-141.45;79.68
31403;BME280;18039;52.188;21.024;2023-01-27T02:56:57;78223.06;;;-141.45;79.75
31403;BME280;18039;52.188;21.024;2023-01-27T02:59:26;78214.97;;;-141.45;79.65
31403;BME280;18039;52.188;21.024;2023-01-27T03:01:53;78210.91;;;-141.45;79.60
31403;BME280;18039;52.188;21.024;2023-01-27T03:04:20;78206.84;;;-141.45;79.12
31403;BME280;18039;52.188;21.024;2023-01-27T03:06:47;78212.94;;;-141.45;79.17
31403;BME280;18039;52.188;21.024;2023-01-27T03:09:14;78214.97;;;-141.45;79.37
31403;BME280;18039;52.188;21.024;2023-01-27T03:11:41;78219.00;;;-141.45;79.28
31403;BME280;18039;52.188;21.024;2023-01-27T03:14:28;78210.91;;;-141.45;80.00
31403;BME280;18039;52.188;21.024;2023-01-27T03:17:14;78214.97;;;-141.45;79.41
31403;BME280;18039;52.188;21.024;2023-01-27T03:20:00;78208.88;;;-141.45;79.48
31403;BME280;18039;52.188;21.024;2023-01-27T03:22:28;78212.94;;;-141.45;79.49
31403;BME280;18039;52.188;21.024;2023-01-27T03:24:55;78219.00;;;-141.45;79.47
31403;BME280;18039;52.188;21.024;2023-01-27T03:27:22;78216.97;;;-141.45;79.48
31403;BME280;18039;52.188;21.024;2023-01-27T03:30:19;78214.97;;;-141.45;80.04
31403;BME280;18039;52.188;21.024;2023-01-27T03:32:55;78210.91;;;-141.45;79.86
31403;BME280;18039;52.188;21.024;2023-01-27T03:35:47;78210.91;;;-141.45;79.94
31403;BME280;18039;52.188;21.024;2023-01-27T03:38:20;78206.84;;;-141.45;80.07
31403;BME280;18039;52.188;21.024;2023-01-27T03:41:05;78206.84;;;-141.45;79.85
31403;BME280;18039;52.188;21.024;2023-01-27T03:43:51;78202.78;;;-141.45;80.01
31403;BME280;18039;52.188;21.024;2023-01-27T03:46:38;78196.72;;;-141.45;80.11
31403;BME280;18039;52.188;21.024;2023-01-27T03:49:06;78192.66;;;-141.45;79.97
31403;BME280;18039;52.188;21.024;2023-01-27T03:51:33;78194.69;;;-141.45;79.70
31403;BME280;18039;52.188;21.024;2023-01-27T03:54:00;78194.69;;;-141.45;79.95
31403;BME280;18039;52.188;21.024;2023-01-27T03:56:27;78194.69;;;-141.45;79.70
31403;BME280;18039;52.188;21.024;2023-01-27T03:58:54;78196.72;;;-141.45;79.76
31403;BME280;18039;52.188;21.024;2023-01-27T04:01:22;78200.75;;;-141.45;79.87
31403;BME280;18039;52.188;21.024;2023-01-27T04:03:50;78194.69;;;-141.45;79.90
31403;BME280;18039;52.188;21.024;2023-01-27T04:06:38;78198.72;;;-141.45;79.87
31403;BME280;18039;52.188;21.024;2023-01-27T04:09:28;78198.72;;;-141.45;79.50
31403;BME280;18039;52.188;21.024;2023-01-27T04:11:57;78206.84;;;-141.45;79.80
31403;BME280;18039;52.188;21.024;2023-01-27T04:14:31;78219.00;;;-141.45;79.68
31403;BME280;18039;52.188;21.024;2023-01-27T04:16:59;78214.97;;;-141.45;79.95
31403;BME280;18039;52.188;21.024;2023-01-27T04:19:27;78210.91;;;-141.45;80.77
31403;BME280;18039;52.188;21.024;2023-01-27T04:21:55;78212.94;;;-141.45;81.17
31403;BME280;18039;52.188;21.024;2023-01-27T04:24:23;78223.06;;;-141.45;81.15
31403;BME280;18039;52.188;21.024;2023-01-27T04:26:57;78210.91;;;-141.45;82.08
31403;BME280;18039;52.188;21.024;2023-01-27T04:29:27;78219.00;;;-141.45;82.07
31403;BME280;18039;52.188;21.024;2023-01-27T04:31:55;78219.00;;;-141.45;82.42
31403;BME280;18039;52.188;21.024;2023-01-27T04:34:25;78223.06;;;-141.45;82.67
31403;BME280;18039;52.188;21.024;2023-01-27T04:36:53;78219.00;;;-141.45;83.24
31403;BME280;18039;52.188;21.024;2023-01-27T04:39:20;78219.00;;;-141.45;83.52
31403;BME280;18039;52.188;21.024;2023-01-27T04:41:48;78225.09;;;-141.45;83.05
31403;BME280;18039;52.188;21.024;2023-01-27T04:44:16;78235.25;;;-141.45;83.80
31403;BME280;18039;52.188;21.024;2023-01-27T04:46:46;78229.16;;;-141.45;84.02
31403;BME280;18039;52.188;21.024;2023-01-27T04:49:13;78235.25;;;-141.45;84.33
31403;BME280;18039;52.188;21.024;2023-01-27T04:51:40;78243.34;;;-141.45;85.06
31403;BME280;18039;52.188;21.024;2023-01-27T04:54:08;78251.47;;;-141.45;84.96
31403;BME280;18039;52.188;21.024;2023-01-27T04:56:37;78257.53;;;-141.45;85.17
31403;BME280;18039;52.188;21.024;2023-01-27T04:59:07;78251.47;;;-141.45;84.73
31403;BME280;18039;52.188;21.024;2023-01-27T05:01:35;78259.56;;;-141.45;84.48
31403;BME280;18039;52.188;21.024;2023-01-27T05:04:03;78265.66;;;-141.45;84.82
31403;BME280;18039;52.188;21.024;2023-01-27T05:06:48;78267.69;;;-141.45;85.11
31403;BME280;18039;52.188;21.024;2023-01-27T05:09:16;78271.75;;;-141.45;85.62
31403;BME280;18039;52.188;21.024;2023-01-27T05:11:43;78267.69;;;-141.45;85.77
31403;BME280;18039;52.188;21.024;2023-01-27T05:14:10;78267.69;;;-141.45;85.75
31403;BME280;18039;52.188;21.024;2023-01-27T05:16:39;78255.53;;;-141.45;85.86
31403;BME280;18039;52.188;21.024;2023-01-27T05:19:07;78251.47;;;-141.45;86.27
31403;BME280;18039;52.188;21.024;2023-01-27T05:21:34;78251.47;;;-141.45;85.99
31403;BME280;18039;52.188;21.024;2023-01-27T05:24:02;78255.53;;;-141.45;85.97
31403;BME280;18039;52.188;21.024;2023-01-27T05:26:29;78259.56;;;-141.45;86.08
31403;BME280;18039;52.188;21.024;2023-01-27T05:28:57;78267.69;;;-141.45;86.04
31403;BME280;18039;52.188;21.024;2023-01-27T05:31:26;78273.78;;;-141.45;86.22
31403;BME280;18039;52.188;21.024;2023-01-27T05:33:55;78287.97;;;-141.45;86.76
31403;BME280;18039;52.188;21.024;2023-01-27T05:36:24;78287.97;;;-141.45;86.83
31403;BME280;18039;52.188;21.024;2023-01-27T05:38:53;78292.03;;;-141.45;87.20
31403;BME280;18039;52.188;21.024;2023-01-27T05:41:21;78296.09;;;-141.45;87.30
31403;BME280;18039;52.188;21.024;2023-01-27T05:43:52;78290.00;;;-141.45;87.46
31403;BME280;18039;52.188;21.024;2023-01-27T05:46:25;78292.03;;;-141.45;87.65
31403;BME280;18039;52.188;21.024;2023-01-27T05:48:54;78296.09;;;-141.45;87.78
31403;BME280;18039;52.188;21.024;2023-01-27T05:51:23;78308.25;;;-141.45;87.67
31403;BME280;18039;52.188;21.024;2023-01-27T05:53:51;78296.09;;;-141.45;87.90
31403;BME280;18039;52.188;21.024;2023-01-27T05:56:19;78292.03;;;-141.45;87.85
31403;BME280;18039;52.188;21.024;2023-01-27T05:58:47;78296.09;;;-141.45;87.74
31403;BME280;18039;52.188;21.024;2023-01-27T06:01:16;78300.13;;;-141.45;87.95
31403;BME280;18039;52.188;21.024;2023-01-27T06:03:45;78294.06;;;-141.45;88.09
31403;BME280;18039;52.188;21.024;2023-01-27T06:06:13;78292.03;;;-141.45;88.14
31403;BME280;18039;52.188;21.024;2023-01-27T06:08:42;78296.09;;;-141.45;88.14
31403;BME280;18039;52.188;21.024;2023-01-27T06:11:09;78300.13;;;-141.45;88.06
31403;BME280;18039;52.188;21.024;2023-01-27T06:13:36;78300.13;;;-141.45;88.31
31403;BME280;18039;52.188;21.024;2023-01-27T06:16:08;78308.25;;;-141.45;88.29
31403;BME280;18039;52.188;21.024;2023-01-27T06:18:36;78308.25;;;-141.45;88.18
31403;BME280;18039;52.188;21.024;2023-01-27T06:21:06;78312.31;;;-141.45;88.49
31403;BME280;18039;52.188;21.024;2023-01-27T06:23:33;78316.34;;;-141.45;88.23
31403;BME280;18039;52.188;21.024;2023-01-27T06:26:05;78324.47;;;-141.45;88.37
31403;BME280;18039;52.188;21.024;2023-01-27T06:28:32;78332.59;;;-141.45;88.46
31403;BME280;18039;52.188;21.024;2023-01-27T06:31:18;78338.66;;;-141.45;88.88
31403;BME280;18039;52.188;21.024;2023-01-27T06:33:46;78336.66;;;-141.45;88.80
31403;BME280;18039;52.188;21.024;2023-01-27T06:36:15;78344.75;;;-141.45;89.08
31403;BME280;18039;52.188;21.024;2023-01-27T06:38:44;78340.69;;;-141.45;89.07
31403;BME280;18039;52.188;21.024;2023-01-27T06:41:11;78340.69;;;-141.45;89.28
31403;BME280;18039;52.188;21.024;2023-01-27T06:43:38;78344.75;;;-141.45;89.48
31403;BME280;18039;52.188;21.024;2023-01-27T06:46:05;78342.72;;;-141.45;89.43
31403;BME280;18039;52.188;21.024;2023-01-27T06:48:33;78344.75;;;-141.45;89.68
31403;BME280;18039;52.188;21.024;2023-01-27T06:51:00;78344.75;;;-141.45;89.89
31403;BME280;18039;52.188;21.024;2023-01-27T06:53:28;78356.94;;;-141.45;90.19
31403;BME280;18039;52.188;21.024;2023-01-27T06:55:56;78358.94;;;-141.45;90.45
31403;BME280;18039;52.188;21.024;2023-01-27T06:58:24;78356.94;;;-141.45;90.58
31403;BME280;18039;52.188;21.024;2023-01-27T07:00:52;78352.88;;;-141.45;90.61
31403;BME280;18039;52.188;21.024;2023-01-27T07:03:20;78348.81;;;-141.45;90.55
31403;BME280;18039;52.188;21.024;2023-01-27T07:05:47;78356.94;;;-141.45;90.73
31403;BME280;18039;52.188;21.024;2023-01-27T07:08:15;78344.75;;;-141.45;90.78
31403;BME280;18039;52.188;21.024;2023-01-27T07:10:41;78336.66;;;-141.45;90.56
31403;BME280;18039;52.188;21.024;2023-01-27T07:13:11;78330.56;;;-141.45;90.32
31403;BME280;18039;52.188;21.024;2023-01-27T07:15:39;78332.59;;;-141.45;90.34
31403;BME280;18039;52.188;21.024;2023-01-27T07:18:07;78328.53;;;-141.45;90.22
31403;BME280;18039;52.188;21.024;2023-01-27T07:20:35;78316.34;;;-141.45;90.21
31403;BME280;18039;52.188;21.024;2023-01-27T07:23:03;78316.34;;;-141.45;90.06
31403;BME280;18039;52.188;21.024;2023-01-27T07:25:32;78300.13;;;-141.45;89.93
31403;BME280;18039;52.188;21.024;2023-01-27T07:28:00;78300.13;;;-141.45;89.84
31403;BME280;18039;52.188;21.024;2023-01-27T07:30:28;78281.88;;;-141.45;89.14
31403;BME280;18039;52.188;21.024;2023-01-27T07:33:02;78275.81;;;-141.45;89.11
31403;BME280;18039;52.188;21.024;2023-01-27T07:35:29;78261.59;;;-141.45;88.91
31403;BME280;18039;52.188;21.024;2023-01-27T07:37:57;78259.56;;;-141.45;88.50
31403;BME280;18039;52.188;21.024;2023-01-27T07:40:24;78249.44;;;-141.45;88.20
31403;BME280;18039;52.188;21.024;2023-01-27T07:42:51;78239.28;;;-141.45;87.59
31403;BME280;18039;52.188;21.024;2023-01-27T07:45:18;78231.19;;;-141.45;87.44
31403;BME280;18039;52.188;21.024;2023-01-27T07:47:46;78227.13;;;-141.45;87.13
31403;BME280;18039;52.188;21.024;2023-01-27T07:50:13;78219.00;;;-141.45;86.89
31403;BME280;18039;52.188;21.024;2023-01-27T07:52:41;78221.03;;;-141.45;85.71
31403;BME280;18039;52.188;21.024;2023-01-27T07:55:08;78219.00;;;-141.45;85.70
31403;BME280;18039;52.188;21.024;2023-01-27T07:57:36;78308.25;;;-141.45;85.48
31403;BME280;18039;52.188;21.024;2023-01-27T08:00:03;78202.78;;;-141.45;84.93
31403;BME280;18039;52.188;21.024;2023-01-27T08:02:38;78186.56;;;-141.45;85.10
31403;BME280;18039;52.188;21.024;2023-01-27T08:05:05;78166.28;;;-141.45;84.35
31403;BME280;18039;52.188;21.024;2023-01-27T08:07:33;78162.22;;;-141.45;83.05
31403;BME280;18039;52.188;21.024;2023-01-27T08:09:59;78154.13;;;-141.45;81.75
31403;BME280;18039;52.188;21.024;2023-01-27T08:12:27;78162.22;;;-141.45;79.12
31403;BME280;18039;52.188;21.024;2023-01-27T08:14:54;78162.22;;;-141.45;79.50
31403;BME280;18039;52.188;21.024;2023-01-27T08:17:21;78158.16;;;-141.45;79.16
31403;BME280;18039;52.188;21.024;2023-01-27T08:19:48;78146.00;;;-141.45;77.30
31403;BME280;18039;52.188;21.024;2023-01-27T08:22:18;78141.94;;;-141.45;76.78
31403;BME280;18039;52.188;21.024;2023-01-27T08:24:48;78150.06;;;-141.45;75.86
31403;BME280;18039;52.188;21.024;2023-01-27T08:27:16;78141.94;;;-141.45;75.15
31403;BME280;18039;52.188;21.024;2023-01-27T08:29:43;78133.84;;;-141.45;74.84
31403;BME280;18039;52.188;21.024;2023-01-27T08:32:10;78117.63;;;-141.45;74.92
31403;BME280;18039;52.188;21.024;2023-01-27T08:34:41;78113.56;;;-141.45;74.64
31403;BME280;18039;52.188;21.024;2023-01-27T08:37:08;78109.50;;;-141.45;73.83
31403;BME280;18039;52.188;21.024;2023-01-27T08:39:35;78111.53;;;-141.45;73.67
31403;BME280;18039;52.188;21.024;2023-01-27T08:42:02;78109.50;;;-141.45;73.44
31403;BME280;18039;52.188;21.024;2023-01-27T08:44:29;78097.34;;;-141.45;74.31
31403;BME280;18039;52.188;21.024;2023-01-27T08:46:56;78085.16;;;-141.45;73.85
31403;BME280;18039;52.188;21.024;2023-01-27T08:49:23;78073.00;;;-141.45;73.42
31403;BME280;18039;52.188;21.024;2023-01-27T08:51:51;78077.06;;;-141.45;71.88
31403;BME280;18039;52.188;21.024;2023-01-27T08:54:18;78083.13;;;-141.45;71.78
31403;BME280;18039;52.188;21.024;2023-01-27T08:56:45;78093.28;;;-141.45;70.93
31403;BME280;18039;52.188;21.024;2023-01-27T08:59:12;78109.50;;;-141.45;71.55
31403;BME280;18039;52.188;21.024;2023-01-27T09:01:39;78115.59;;;-141.45;72.10
31403;BME280;18039;52.188;21.024;2023-01-27T09:04:07;78117.63;;;-141.45;71.93
31403;BME280;18039;52.188;21.024;2023-01-27T09:06:35;78113.56;;;-141.45;72.34
31403;BME280;18039;52.188;21.024;2023-01-27T09:09:02;78109.50;;;-141.45;72.81
31403;BME280;18039;52.188;21.024;2023-01-27T09:11:42;78109.50;;;-141.45;72.78
31403;BME280;18039;52.188;21.024;2023-01-27T09:14:10;78109.50;;;-141.45;72.91
31403;BME280;18039;52.188;21.024;2023-01-27T09:16:38;78113.56;;;-141.45;72.90
31403;BME280;18039;52.188;21.024;2023-01-27T09:19:05;78103.41;;;-141.45;73.18
31403;BME280;18039;52.188;21.024;2023-01-27T09:21:32;78103.41;;;-141.45;71.68
31403;BME280;18039;52.188;21.024;2023-01-27T09:23:59;78093.28;;;-141.45;71.95
31403;BME280;18039;52.188;21.024;2023-01-27T09:26:27;78097.34;;;-141.45;71.49
31403;BME280;18039;52.188;21.024;2023-01-27T09:28:54;78093.28;;;-141.45;71.26
31403;BME280;18039;52.188;21.024;2023-01-27T09:31:21;78073.00;;;-141.45;71.52
31403;BME280;18039;52.188;21.024;2023-01-27T09:33:48;78048.66;;;-141.45;71.72
31403;BME280;18039;52.188;21.024;2023-01-27T09:36:18;78020.28;;;-141.45;70.73
31403;BME280;18039;52.188;21.024;2023-01-27T09:38:55;77993.91;;;-141.45;69.76
31403;BME280;18039;52.188;21.024;2023-01-27T09:47:09;77955.38;;;-141.45;68.12
31403;BME280;18039;52.188;21.024;2023-01-27T09:55:33;77971.59;;;-141.45;66.33
31403;BME280;18039;52.188;21.024;2023-01-27T10:03:49;77943.22;;;-141.45;65.65
31403;BME280;18039;52.188;21.024;2023-01-27T10:06:48;77935.09;;;-141.45;65.55
31403;BME280;18039;52.188;21.024;2023-01-27T10:20:42;77918.88;;;-141.45;66.69
31403;BME280;18039;52.188;21.024;2023-01-27T10:28:33;77971.59;;;-141.45;66.92
31403;BME280;18039;52.188;21.024;2023-01-27T10:31:07;77983.75;;;-141.45;67.17
31403;BME280;18039;52.188;21.024;2023-01-27T10:33:45;77995.94;;;-141.45;66.48
31403;BME280;18039;52.188;21.024;2023-01-27T10:41:54;78024.31;;;-141.45;66.95
31403;BME280;18039;52.188;21.024;2023-01-27T10:44:41;78030.41;;;-141.45;66.96
31403;BME280;18039;52.188;21.024;2023-01-27T10:50:16;78020.28;;;-141.45;67.13
31403;BME280;18039;52.188;21.024;2023-01-27T10:53:02;78020.28;;;-141.45;67.12
31403;BME280;18039;52.188;21.024;2023-01-27T10:55:40;78024.31;;;-141.45;66.80
31403;BME280;18039;52.188;21.024;2023-01-27T10:58:38;78038.53;;;-141.45;67.75
31403;BME280;18039;52.188;21.024;2023-01-27T11:01:12;78052.72;;;-141.45;67.96
31403;BME280;18039;52.188;21.024;2023-01-27T11:03:56;78034.47;;;-141.45;67.42
31403;BME280;18039;52.188;21.024;2023-01-27T11:06:33;78040.56;;;-141.45;67.56
31403;BME280;18039;52.188;21.024;2023-01-27T11:09:06;78040.56;;;-141.45;67.17
31403;BME280;18039;52.188;21.024;2023-01-27T11:11:34;78036.50;;;-141.45;67.53
31403;BME280;18039;52.188;21.024;2023-01-27T11:14:39;78036.50;;;-141.45;67.86
31403;BME280;18039;52.188;21.024;2023-01-27T11:17:17;78036.50;;;-141.45;68.53
31403;BME280;18039;52.188;21.024;2023-01-27T11:20:01;78032.44;;;-141.45;68.41
31403;BME280;18039;52.188;21.024;2023-01-27T11:22:37;78032.44;;;-141.45;68.16
31403;BME280;18039;52.188;21.024;2023-01-27T11:25:28;78024.31;;;-141.45;67.79
31403;BME280;18039;52.188;21.024;2023-01-27T11:28:16;78028.38;;;-141.45;68.26
31403;BME280;18039;52.188;21.024;2023-01-27T11:31:04;78018.25;;;-141.45;68.34
31403;BME280;18039;52.188;21.024;2023-01-27T11:33:50;78024.31;;;-141.45;68.38
31403;BME280;18039;52.188;21.024;2023-01-27T11:36:21;78020.28;;;-141.45;68.65
31403;BME280;18039;52.188;21.024;2023-01-27T11:38:48;78020.28;;;-141.45;68.79
31403;BME280;18039;52.188;21.024;2023-01-27T11:41:15;78024.31;;;-141.45;68.95
31403;BME280;18039;52.188;21.024;2023-01-27T11:43:42;78008.09;;;-141.45;68.87
31403;BME280;18039;52.188;21.024;2023-01-27T11:46:22;78012.16;;;-141.45;69.19
31403;BME280;18039;52.188;21.024;2023-01-27T11:49:08;78024.31;;;-141.45;70.06
31403;BME280;18039;52.188;21.024;2023-01-27T11:51:39;78028.38;;;-141.45;70.19
31403;BME280;18039;52.188;21.024;2023-01-27T11:54:10;78040.56;;;-141.45;70.42
31403;BME280;18039;52.188;21.024;2023-01-27T11:56:43;78044.59;;;-141.45;70.65
31403;BME280;18039;52.188;21.024;2023-01-27T11:59:16;78040.56;;;-141.45;70.41
31403;BME280;18039;52.188;21.024;2023-01-27T12:01:58;78044.59;;;-141.45;70.97
31403;BME280;18039;52.188;21.024;2023-01-27T12:04:40;78040.56;;;-141.45;71.19
31403;BME280;18039;52.188;21.024;2023-01-27T12:07:44;78028.38;;;-141.45;70.61
31403;BME280;18039;52.188;21.024;2023-01-27T12:10:39;78036.50;;;-141.45;70.43
31403;BME280;18039;52.188;21.024;2023-01-27T12:13:20;78044.59;;;-141.45;69.74
31403;BME280;18039;52.188;21.024;2023-01-27T12:15:54;78054.75;;;-141.45;69.90
31403;BME280;18039;52.188;21.024;2023-01-27T12:18:22;78056.78;;;-141.45;69.74
31403;BME280;18039;52.188;21.024;2023-01-27T12:20:58;78064.88;;;-141.45;70.14
31403;BME280;18039;52.188;21.024;2023-01-27T12:23:28;78060.81;;;-141.45;70.87
31403;BME280;18039;52.188;21.024;2023-01-27T12:25:59;78060.81;;;-141.45;71.00
31403;BME280;18039;52.188;21.024;2023-01-27T12:28:31;78056.78;;;-141.45;71.57
31403;BME280;18039;52.188;21.024;2023-01-27T12:31:10;78066.91;;;-141.45;72.52
31403;BME280;18039;52.188;21.024;2023-01-27T12:33:43;78048.66;;;-141.45;72.35
31403;BME280;18039;52.188;21.024;2023-01-27T12:36:14;78052.72;;;-141.45;73.20
31403;BME280;18039;52.188;21.024;2023-01-27T12:38:57;78050.69;;;-141.45;73.13
31403;BME280;18039;52.188;21.024;2023-01-27T12:41:27;78044.59;;;-141.45;73.87
31403;BME280;18039;52.188;21.024;2023-01-27T12:43:59;78048.66;;;-141.45;74.63
31403;BME280;18039;52.188;21.024;2023-01-27T12:46:33;78036.50;;;-141.45;74.63
31403;BME280;18039;52.188;21.024;2023-01-27T12:49:09;78030.41;;;-141.45;74.09
31403;BME280;18039;52.188;21.024;2023-01-27T12:51:41;78036.50;;;-141.45;73.44
31403;BME280;18039;52.188;21.024;2023-01-27T12:54:25;78048.66;;;-141.45;73.74
31403;BME280;18039;52.188;21.024;2023-01-27T12:56:55;78052.72;;;-141.45;73.81
31403;BME280;18039;52.188;21.024;2023-01-27T12:59:27;78068.94;;;-141.45;75.18
31403;BME280;18039;52.188;21.024;2023-01-27T13:02:29;78073.00;;;-141.45;75.78
31403;BME280;18039;52.188;21.024;2023-01-27T13:05:04;78077.06;;;-141.45;76.40
31403;BME280;18039;52.188;21.024;2023-01-27T13:07:43;78079.09;;;-141.45;76.77
31403;BME280;18039;52.188;21.024;2023-01-27T13:10:22;78070.97;;;-141.45;77.25
31403;BME280;18039;52.188;21.024;2023-01-27T13:12:51;78060.81;;;-141.45;77.58
31403;BME280;18039;52.188;21.024;2023-01-27T13:15:21;78060.81;;;-141.45;77.34
31403;BME280;18039;52.188;21.024;2023-01-27T13:23:00;78068.94;;;-141.45;78.69
31403;BME280;18039;52.188;21.024;2023-01-27T13:25:35;78085.16;;;-141.45;79.95
31403;BME280;18039;52.188;21.024;2023-01-27T13:28:06;78089.22;;;-141.45;80.35
31403;BME280;18039;52.188;21.024;2023-01-27T13:30:40;78097.34;;;-141.45;81.70
31403;BME280;18039;52.188;21.024;2023-01-27T13:33:50;78093.28;;;-141.45;81.85
31403;BME280;18039;52.188;21.024;2023-01-27T13:37:03;78101.38;;;-141.45;82.74
31403;BME280;18039;52.188;21.024;2023-01-27T13:42:18;78113.56;;;-141.45;84.24
31403;BME280;18039;52.188;21.024;2023-01-27T13:44:53;78121.66;;;-141.45;83.93
31403;BME280;18039;52.188;21.024;2023-01-27T13:47:24;78113.56;;;-141.45;84.49
31403;BME280;18039;52.188;21.024;2023-01-27T13:49:57;78117.63;;;-141.45;84.66
31403;BME280;18039;52.188;21.024;2023-01-27T13:52:26;78109.50;;;-141.45;84.35